To NAV CANADA Home Page Login to a new session Search on AWWS site Feedback and Comments Disclaimer Vers la page française équivalente Tips FAQ What's new on the site To the Forecasts and Observations / NOTAM section To "File a Flight Plan" website Publications and other links Update of the User's profile FIC Telephone Numbers My Weather Data Folder Route Weather Data Regional Weather Data Local Weather Data To the Forecasts and Observations / NOTAM section
Request Generated 04/01/2015 at 21:14:58 UTC . Weather information available at that time is displayed.

METAR/TAF

WINDSOR/ON    

METAR CYQG 012100Z 07009G15KT 8SM FEW240 13/06 A3005 RMK CI1
CONTRAILS SLP181=
METAR CYQG 012000Z 08010KT 10SM FEW020 13/06 A3008 RMK CF1 CF TR
SLP188=
METAR CYQG 011900Z 08007KT 060V120 10SM FEW024 11/06 A3010 RMK CU1 CU
TR SLP196=

TAF CYQG 011738Z 0118/0218 05008KT P6SM SKC
BECMG 0121/0123 VRB03KT
BECMG 0201/0203 20012KT
FM021300 20015KT P6SM OVC025 TEMPO 0213/0218 5SM -SHRA BR
RMK NXT FCST BY 020000Z=
Your time UTC time
Weather data provided by Environment Canada and NAV CANADA